Wind, zonnestraling en UV gegevens tijdelijk niet correct door stormschade | Wind, Solar and UV data temporarily inaccurate due to storm inflicted damage

De hemel in Utrecht
© Sotto le Stelle
Rivierenwijk, Utrecht  De hemel in Utrecht</br>© Sotto le Stelle</br>Rivierenwijk, Utrecht


Horizontaal 360° beeld  Horizontaal 360° beeld


U vindt ons ook hier:

Het Weer Aktueel

European Weather Network

Weather Underground

AWEKAS

WeatherlinkIP

HAMweather, WeatherForYou, PWS Weather


METAR rapporten vliegvelden

   
EHAM - Amsterdam/Schiph, Netherlands
Afstand tot: NW 32 km
Gewijzigd: 19-01-2018 04:25
Lichte Regenbuien, Regen, Grotendeels bewolkt  
Lichte Regenbuien, Regen, Grotendeels bewolkt  
   Wind: WNW 13 km/h
Wind: WNW 13 km/h
Temperatuur: 3°C
Voelt als: -1°C
Dauwpunt: 2°C
Vochtigheid: 93%
Barometer: 1003 hPa
Bewolking: Grotendeels bewolkt
Zicht: meer dan 10 km
Bewolking: Licht bewolkt 1500 ft,
Licht bewolkt 2000 ft,
Grotendeels bewolkt 4000 ft
EHAM 190325Z 29007KT 9999 -SHRA FEW015 FEW020CB BKN040 03/02 Q1003 NOSIG
EHRD - Rotterdam Airpor, Netherlands
Afstand tot: WZW 45 km
Gewijzigd: 19-01-2018 04:25
Grotendeels bewolkt  
Grotendeels bewolkt  
   Wind: Westen 13 km/h
Wind: Westen 13 km/h
Temperatuur: 4°C
Voelt als: 1°C
Dauwpunt: 3°C
Vochtigheid: 93%
Barometer: 1004 hPa
Bewolking: Grotendeels bewolkt
Zicht: meer dan 10 km
Bewolking: Gedeeltelijk bewolkt 1600 ft,
Gedeeltelijk bewolkt 2000 ft,
Grotendeels bewolkt 3800 ft
EHRD 190325Z AUTO 28007KT 250V320 9999 SCT016 SCT020 BKN038 04/03 Q1004 REDZ NOSIG
EHDL - Deelen Rnlafb, Netherlands
Afstand tot: O 55 km
Gewijzigd: 19-01-2018 04:25
Wat regen mogelijk, Grotendeels bewolkt  
Wat regen mogelijk, Grotendeels bewolkt  
   Wind: ZW 13 km/h
Wind: ZW 13 km/h
Temperatuur: 2°C
Voelt als: -2°C
Dauwpunt: 2°C
Vochtigheid: 100%
Barometer: 1003 hPa
Bewolking: Grotendeels bewolkt
Zicht: meer dan 10 km
Bewolking: Licht bewolkt 400 ft,
Gedeeltelijk bewolkt 1600 ft,
Grotendeels bewolkt 2200 ft
EHDL 190325Z AUTO 23007KT 200V270 9999 -RA FEW004 SCT016 BKN022 02/02 Q1003 RERA REDZ WHT
EHGR - Gilze-Rijen Rnla, Netherlands
Afstand tot: Z 59 km
Gewijzigd: 19-01-2018 04:43
Grotendeels bewolkt  
Grotendeels bewolkt  
   Wind: Westen 9.3 km/h
Wind: Westen 9.3 km/h
Temperatuur: 4°C
Voelt als: 2°C
Dauwpunt: 2°C
Vochtigheid: 87%
Barometer: 1004 hPa
Bewolking: Grotendeels bewolkt
Zicht: meer dan 10 km
Bewolking: Licht bewolkt 1200 ft,
Gedeeltelijk bewolkt 1500 ft,
Grotendeels bewolkt 3100 ft
EHGR 190343Z AUTO 26005KT 240V300 9999 FEW012 SCT015CB BKN031 04/02 Q1004 WHT
EHVK - Volkel Rnlafb, Netherlands
Afstand tot: ZO 67 km
Gewijzigd: 19-01-2018 04:40
Bewolking  
Bewolking  
   Wind: WZW 16.7 km/h
Wind: WZW 16.7 km/h
Temperatuur: 3°C
Voelt als: -1°C
Dauwpunt: 2°C
Vochtigheid: 93%
Barometer: 1004 hPa
Bewolking: Bewolking
Zicht: meer dan 10 km
Bewolking: Licht bewolkt 600 ft,
Grotendeels bewolkt 700 ft,
Bewolking 800 ft
EHVK 190340Z AUTO 25009KT 9999 FEW006 BKN007 OVC008 03/02 Q1004 GRN
EHEH - Eindhoven Rnlafb, Netherlands
Afstand tot: ZZO 74 km
Gewijzigd: 19-01-2018 04:48
Regenbuien, Regen, Grotendeels bewolkt  
Regenbuien, Regen, Grotendeels bewolkt  
   Wind: WZW 18.5 km/h
Wind: WZW 18.5 km/h
Temperatuur: 3°C
Voelt als: -1°C
Dauwpunt: 2°C
Vochtigheid: 93%
Barometer: 1005 hPa
Bewolking: Grotendeels bewolkt
Zicht: 5 km
Bewolking: Licht bewolkt 600 ft,
Gedeeltelijk bewolkt 1000 ft,
Grotendeels bewolkt 1500 ft
EHEH 190348Z AUTO 25010KT 210V290 5000 SHRA FEW006 SCT010 BKN015CB 03/02 Q1005 GRN

Script ontwikkeld door  Saratoga-weather.org Aangepast voor de template door  Weerstation Leuven

Apparatuur in gebruik:

Weerstation
Davis VP2 Plus (Wireless)

Weerprogramma
Cumulus

Weercomputer
Shuttle Inc. SFM27

Webleverancier
Antagonist Webhosting

Davis VP2 Plus (Wireless)

Cumulus

Shuttle Inc. SFM27

Antagonist Webhosting